Aviation Digital Data Service (ADDS)

Output produced by METARs form (1913 UTC 26 July 2014)
found at http://www.aviationweather.gov/adds/metars/
 
KILG 261851Z 05004KT 10SM FEW024 SCT032 SCT050 27/20 A2995 RMK AO2 SLP143 T02720200
KILG 261720Z 2618/2718 21008KT P6SM SCT050 
     FM262200 17009KT P6SM SCT040 BKN150 
     FM270800 18006KT 5SM BR BKN040 
     TEMPO 2708/2712 3SM -SHRA BR 
     FM271300 24009KT P6SM BKN045